Time;durP1;ratioP1;P1;durP2;ratioP2;P2;SDS_P1;SDS_P2;PMS_P1;PMS_P2;Temp;Humidity;BMP_temperature;BMP_pressure;BME280_temperature;BME280_humidity;BME280_pressure;Samples;Min_cycle;Max_cycle;Signal;HPM_P1;HPM_P2
2024/04/01 00:00:44;;;;;;;1999.90;999.90;;;10.80;99.90;;;;;;5033910;28;20059;-68
2024/04/01 00:03:10;;;;;;;1999.90;999.90;;;10.80;99.90;;;;;;5033628;28;20108;-67
2024/04/01 00:05:35;;;;;;;1999.90;999.90;;;10.80;99.90;;;;;;5033512;28;20087;-68
2024/04/01 00:08:01;;;;;;;1999.90;999.90;;;10.80;99.90;;;;;;5033497;28;20037;-68
2024/04/01 00:10:26;;;;;;;1999.90;999.90;;;10.80;99.90;;;;;;5033232;28;20473;-68
2024/04/01 00:12:57;;;;;;;1999.90;999.90;;;10.80;99.90;;;;;;5033222;28;20104;-68
2024/04/01 00:15:23;;;;;;;1999.90;999.90;;;10.70;99.90;;;;;;5033698;28;20025;-68
2024/04/01 00:17:49;;;;;;;1999.90;999.90;;;10.70;99.90;;;;;;5033240;28;20029;-68
2024/04/01 00:20:15;;;;;;;1999.90;999.90;;;10.70;99.90;;;;;;5033442;28;20091;-68
2024/04/01 00:22:40;;;;;;;1999.90;999.90;;;10.60;99.90;;;;;;5031897;28;20392;-68
2024/04/01 00:25:06;;;;;;;1999.90;999.90;;;10.60;99.90;;;;;;5033192;28;20087;-68
2024/04/01 00:27:32;;;;;;;1999.90;999.90;;;10.50;99.90;;;;;;5033281;28;20044;-68
2024/04/01 00:29:57;;;;;;;1999.90;999.90;;;10.60;99.90;;;;;;5033288;28;20033;-68
2024/04/01 00:32:23;;;;;;;1999.90;999.90;;;10.60;99.90;;;;;;5033219;28;20029;-68
2024/04/01 00:34:48;;;;;;;1999.90;999.90;;;10.60;99.90;;;;;;5033139;28;20029;-75
2024/04/01 00:37:14;;;;;;;1999.90;999.90;;;10.70;99.90;;;;;;5033389;28;20227;-68
2024/04/01 00:39:40;;;;;;;1999.90;999.90;;;10.70;99.90;;;;;;5032975;28;20032;-68
2024/04/01 00:42:05;;;;;;;1999.90;999.90;;;10.70;99.90;;;;;;5031601;28;20025;-68
2024/04/01 00:44:31;;;;;;;1999.90;999.90;;;10.70;99.90;;;;;;5032960;28;20031;-68
2024/04/01 00:46:57;;;;;;;1999.90;999.90;;;10.70;99.90;;;;;;5032897;28;20485;-68
2024/04/01 00:49:24;;;;;;;1999.90;999.90;;;10.80;99.90;;;;;;5032825;28;20480;-68
2024/04/01 00:51:51;;;;;;;1999.90;999.90;;;10.80;99.90;;;;;;5032809;28;20397;-69
2024/04/01 00:54:17;;;;;;;1999.90;999.90;;;10.80;99.90;;;;;;5032380;28;20104;-68
2024/04/01 00:56:46;;;;;;;1999.90;999.90;;;10.90;99.90;;;;;;5032405;28;20025;-68
2024/04/01 00:59:15;;;;;;;1999.90;999.90;;;10.90;99.90;;;;;;5032795;28;20026;-69
2024/04/01 01:01:43;;;;;;;1999.90;999.90;;;10.90;99.90;;;;;;5032918;28;20159;-68
2024/04/01 01:04:09;;;;;;;1999.90;999.90;;;10.90;99.90;;;;;;5032599;28;20438;-68
2024/04/01 01:06:37;;;;;;;1999.90;999.90;;;10.90;99.90;;;;;;5032550;28;20025;-68
2024/04/01 01:09:02;;;;;;;1999.90;999.90;;;10.90;99.90;;;;;;5032704;28;20021;-68
2024/04/01 01:11:29;;;;;;;1999.90;999.90;;;10.90;99.90;;;;;;5032791;28;20022;-69
2024/04/01 01:13:54;;;;;;;1999.90;999.90;;;10.90;99.90;;;;;;5032723;28;20048;-68
2024/04/01 01:16:20;;;;;;;1999.90;999.90;;;10.90;99.90;;;;;;5032589;28;20060;-68
2024/04/01 01:18:46;;;;;;;1999.90;999.90;;;10.90;99.90;;;;;;5032614;28;20053;-68
2024/04/01 01:21:11;;;;;;;1999.90;999.90;;;10.90;99.90;;;;;;5032415;28;20036;-69
2024/04/01 01:23:37;;;;;;;1999.90;999.90;;;10.80;99.90;;;;;;5032364;28;20443;-69
2024/04/01 01:26:03;;;;;;;1999.90;999.90;;;10.70;99.90;;;;;;5034498;28;20053;-68
2024/04/01 01:28:31;;;;;;;1999.90;999.90;;;10.70;99.90;;;;;;5036290;28;20037;-69
2024/04/01 01:30:56;;;;;;;1999.90;999.90;;;10.70;99.90;;;;;;5035537;28;20108;-68
2024/04/01 01:33:23;;;;;;;1999.90;999.90;;;10.70;99.90;;;;;;5036366;28;20108;-68
2024/04/01 01:35:49;;;;;;;1999.90;999.90;;;10.70;99.90;;;;;;5035700;28;20022;-69
2024/04/01 01:38:16;;;;;;;1999.90;999.90;;;10.70;99.90;;;;;;5036172;28;20025;-68
2024/04/01 01:40:42;;;;;;;1999.90;999.90;;;10.60;99.90;;;;;;5035021;28;20022;-69
2024/04/01 01:43:08;;;;;;;1999.90;999.90;;;10.60;99.90;;;;;;5036238;28;20032;-69
2024/04/01 01:45:33;;;;;;;1999.90;999.90;;;10.60;99.90;;;;;;5036369;28;20108;-68
2024/04/01 01:47:59;;;;;;;1999.90;999.90;;;10.70;99.90;;;;;;5036333;28;20029;-69
2024/04/01 01:50:24;;;;;;;1999.90;999.90;;;10.70;99.90;;;;;;5035875;28;20026;-68
2024/04/01 01:52:50;;;;;;;1999.90;999.90;;;10.80;99.90;;;;;;5035948;28;20032;-69
2024/04/01 01:55:16;;;;;;;1999.90;999.90;;;10.80;99.90;;;;;;5036194;28;20036;-69
2024/04/01 01:57:42;;;;;;;1999.90;999.90;;;10.90;99.90;;;;;;5036034;28;20080;-69
2024/04/01 02:00:13;;;;;;;1999.90;999.90;;;10.90;99.90;;;;;;5034743;28;20021;-69
2024/04/01 02:02:40;;;;;;;1999.90;999.90;;;10.90;99.90;;;;;;5035842;28;20033;-68
2024/04/01 02:05:05;;;;;;;1999.90;999.90;;;11.00;99.90;;;;;;5035866;28;20083;-69
2024/04/01 02:07:31;;;;;;;1999.90;999.90;;;10.90;99.90;;;;;;5035798;28;20061;-69
2024/04/01 02:09:57;;;;;;;1999.90;999.90;;;10.90;99.90;;;;;;5035686;28;20021;-69
2024/04/01 02:12:22;;;;;;;1999.90;999.90;;;11.00;99.90;;;;;;5036040;28;20084;-69
2024/04/01 02:14:48;;;;;;;1999.90;999.90;;;11.00;99.90;;;;;;5035953;28;20028;-70
2024/04/01 02:17:14;;;;;;;1999.90;999.90;;;11.00;99.90;;;;;;5035660;28;20035;-68
2024/04/01 02:19:42;;;;;;;1999.90;999.90;;;10.90;99.90;;;;;;5033976;28;20057;-69
2024/04/01 02:22:12;;;;;;;1999.90;999.90;;;10.90;99.90;;;;;;5034230;28;20036;-68
2024/04/01 02:24:41;;;;;;;1999.90;999.90;;;10.90;99.90;;;;;;5034293;28;20037;-74
2024/04/01 02:27:09;;;;;;;1999.90;999.90;;;10.90;99.90;;;;;;5034702;28;20030;-67
2024/04/01 02:29:37;;;;;;;1999.90;999.90;;;10.80;99.90;;;;;;5034244;28;20421;-67
2024/04/01 02:32:04;;;;;;;1999.90;999.90;;;10.60;99.90;;;;;;5034218;28;20029;-67
2024/04/01 02:34:29;;;;;;;1999.90;999.90;;;10.00;99.90;;;;;;5034339;28;20412;-67
2024/04/01 02:36:55;;;;;;;1999.90;999.90;;;9.50;99.90;;;;;;5033982;28;20026;-67
2024/04/01 02:39:24;;;;;;;1999.90;999.90;;;9.20;99.90;;;;;;5034434;28;20030;-68
2024/04/01 02:41:51;;;;;;;1999.90;999.90;;;9.20;99.90;;;;;;5034022;28;20029;-67
2024/04/01 02:44:17;;;;;;;1999.90;999.90;;;9.20;99.90;;;;;;5034221;28;20029;-67
2024/04/01 02:46:44;;;;;;;1999.90;999.90;;;9.40;99.90;;;;;;5032611;28;20488;-67
2024/04/01 02:49:10;;;;;;;1999.90;999.90;;;9.80;99.90;;;;;;5034198;28;20036;-73
2024/04/01 02:51:39;;;;;;;1999.90;999.90;;;10.10;99.90;;;;;;5033926;28;20423;-72
2024/04/01 02:54:05;;;;;;;1999.90;999.90;;;10.30;99.90;;;;;;5032541;28;20396;-68
2024/04/01 02:56:31;;;;;;;1999.90;999.90;;;10.50;99.90;;;;;;5033597;28;20096;-68
2024/04/01 02:59:09;;;;;;;1999.90;999.90;;;10.60;99.90;;;;;;5033749;28;20515;-68
2024/04/01 03:01:39;;;;;;;1999.90;999.90;;;10.70;99.90;;;;;;5033849;28;20536;-68
2024/04/01 03:04:05;;;;;;;1999.90;999.90;;;10.90;99.90;;;;;;5033275;28;20113;-68
2024/04/01 03:06:31;;;;;;;1999.90;999.90;;;11.00;99.90;;;;;;5033600;28;20104;-68
2024/04/01 03:08:57;;;;;;;1999.90;999.90;;;11.10;99.90;;;;;;5033532;28;20029;-68
2024/04/01 03:11:23;;;;;;;1999.90;999.90;;;11.10;99.90;;;;;;5033647;28;20025;-68
2024/04/01 03:13:48;;;;;;;1999.90;999.90;;;11.20;99.90;;;;;;5033706;28;20100;-68
2024/04/01 03:16:16;;;;;;;1999.90;999.90;;;11.20;99.90;;;;;;5033690;28;20104;-75
2024/04/01 03:18:43;;;;;;;1999.90;999.90;;;11.20;99.90;;;;;;4992527;28;1188995;-68
2024/04/01 03:21:08;;;;;;;1999.90;999.90;;;11.10;99.90;;;;;;5032231;28;20049;-68
2024/04/01 03:23:34;;;;;;;1999.90;999.90;;;11.10;99.90;;;;;;5034252;28;20037;-68
2024/04/01 03:26:00;;;;;;;1999.90;999.90;;;11.20;99.90;;;;;;5034043;28;20037;-68
2024/04/01 03:28:26;;;;;;;1999.90;999.90;;;11.20;99.90;;;;;;5032945;28;20038;-68
2024/04/01 03:30:52;;;;;;;1999.90;999.90;;;11.20;99.90;;;;;;5034323;28;20024;-69
2024/04/01 03:33:17;;;;;;;1999.90;999.90;;;11.30;99.90;;;;;;5034072;28;20026;-68
2024/04/01 03:35:43;;;;;;;1999.90;999.90;;;11.30;99.90;;;;;;5033774;28;20029;-68
2024/04/01 03:38:09;;;;;;;1999.90;999.90;;;11.30;99.90;;;;;;5034080;28;20030;-68
2024/04/01 03:40:41;;;;;;;1999.90;999.90;;;11.40;99.90;;;;;;5034199;28;20033;-75
2024/04/01 03:43:08;;;;;;;1999.90;999.90;;;11.40;99.90;;;;;;5032832;28;20025;-74
2024/04/01 03:45:35;;;;;;;1999.90;999.90;;;11.40;99.90;;;;;;5034041;28;20032;-75
2024/04/01 03:48:02;;;;;;;1999.90;999.90;;;11.40;99.90;;;;;;5033377;28;20037;-68
2024/04/01 03:50:27;;;;;;;1999.90;999.90;;;11.00;99.90;;;;;;5033709;28;20518;-68
2024/04/01 03:52:53;;;;;;;1999.90;999.90;;;10.30;99.90;;;;;;5034057;28;20057;-68
2024/04/01 03:55:19;;;;;;;1999.90;999.90;;;9.90;99.90;;;;;;5034236;28;20075;-73
2024/04/01 03:57:44;;;;;;;1999.90;999.90;;;9.70;99.90;;;;;;5033954;28;20032;-67
2024/04/01 04:00:11;;;;;;;1999.90;999.90;;;9.60;99.90;;;;;;5033985;28;20033;-68
2024/04/01 04:02:36;;;;;;;1999.90;999.90;;;9.50;99.90;;;;;;5033544;28;20412;-74
2024/04/01 04:05:02;;;;;;;1999.90;999.90;;;9.60;99.90;;;;;;5033651;28;20030;-68
2024/04/01 04:07:28;;;;;;;1999.90;999.90;;;9.60;99.90;;;;;;5032933;28;20021;-68
2024/04/01 04:09:53;;;;;;;1999.90;999.90;;;9.70;99.90;;;;;;5033368;28;20029;-68
2024/04/01 04:12:19;;;;;;;1999.90;999.90;;;9.80;99.90;;;;;;5033316;28;20021;-75
2024/04/01 04:14:45;;;;;;;1999.90;999.90;;;9.80;99.90;;;;;;5033812;28;20037;-75
2024/04/01 04:17:10;;;;;;;1999.90;999.90;;;9.90;99.90;;;;;;5033623;28;20108;-67
2024/04/01 04:19:36;;;;;;;1999.90;999.90;;;10.00;99.90;;;;;;5033036;28;20080;-68
2024/04/01 04:22:01;;;;;;;1999.90;999.90;;;10.00;99.90;;;;;;5032676;28;20025;-68
2024/04/01 04:24:27;;;;;;;1999.90;999.90;;;9.90;99.90;;;;;;5033071;28;20553;-68
2024/04/01 04:26:53;;;;;;;1999.90;999.90;;;10.00;99.90;;;;;;5033474;28;20098;-75
2024/04/01 04:29:18;;;;;;;1999.90;999.90;;;10.00;99.90;;;;;;5033000;28;20022;-67
2024/04/01 04:31:54;;;;;;;1999.90;999.90;;;10.10;99.90;;;;;;5033428;28;20151;-68
2024/04/01 04:34:23;;;;;;;1999.90;999.90;;;10.00;99.90;;;;;;5033005;28;20021;-68
2024/04/01 04:36:50;;;;;;;1999.90;999.90;;;9.80;99.90;;;;;;5032945;28;20494;-68
2024/04/01 04:39:25;;;;;;;1999.90;999.90;;;9.60;99.90;;;;;;5033102;28;20017;-74
2024/04/01 04:41:51;;;;;;;1999.90;999.90;;;9.50;99.90;;;;;;5033050;28;20030;-73
2024/04/01 04:44:17;;;;;;;1999.90;999.90;;;9.40;99.90;;;;;;5033495;28;20021;-74
2024/04/01 04:46:42;;;;;;;1999.90;999.90;;;9.40;99.90;;;;;;5032708;28;20033;-74
2024/04/01 04:49:08;;;;;;;1999.90;999.90;;;9.30;99.90;;;;;;5032867;28;20052;-68
2024/04/01 04:51:34;;;;;;;1999.90;999.90;;;9.20;99.90;;;;;;5032680;28;20033;-68
2024/04/01 04:54:00;;;;;;;1999.90;999.90;;;9.20;99.90;;;;;;5031927;28;20080;-68
2024/04/01 04:56:26;;;;;;;1999.90;999.90;;;9.20;99.90;;;;;;5033064;28;20155;-74
2024/04/01 04:58:53;;;;;;;1999.90;999.90;;;9.20;99.90;;;;;;5032402;28;20469;-75
2024/04/01 05:01:20;;;;;;;1999.90;999.90;;;9.10;99.90;;;;;;5032928;28;20063;-68
2024/04/01 05:03:46;;;;;;;1999.90;999.90;;;9.20;99.90;;;;;;5031358;28;20116;-75
2024/04/01 05:06:13;;;;;;;1999.90;999.90;;;9.20;99.90;;;;;;5032803;28;20107;-75
2024/04/01 05:08:38;;;;;;;1999.90;999.90;;;9.20;99.90;;;;;;5032406;28;20029;-68
2024/04/01 05:11:07;;;;;;;1999.90;999.90;;;9.30;99.90;;;;;;5032691;28;20496;-69
2024/04/01 05:13:33;;;;;;;1999.90;999.90;;;9.40;99.90;;;;;;5032512;28;20025;-69
2024/04/01 05:15:59;;;;;;;1999.90;999.90;;;9.40;99.90;;;;;;5032906;28;20013;-69
2024/04/01 05:18:26;;;;;;;1999.90;999.90;;;9.40;99.90;;;;;;5032540;28;20057;-69
2024/04/01 05:20:52;;;;;;;1999.90;999.90;;;9.50;99.90;;;;;;5028376;28;20053;-68
2024/04/01 05:23:18;;;;;;;1999.90;999.90;;;9.60;99.90;;;;;;5032297;28;20473;-68
2024/04/01 05:25:43;;;;;;;1999.90;999.90;;;9.70;99.90;;;;;;5032147;28;20029;-69
2024/04/01 05:28:09;;;;;;;1999.90;999.90;;;9.80;99.90;;;;;;5032494;28;20033;-75
2024/04/01 05:30:34;;;;;;;1999.90;999.90;;;9.90;99.90;;;;;;5032260;28;20228;-69
2024/04/01 05:33:00;;;;;;;1999.90;999.90;;;10.00;99.90;;;;;;5032673;28;20033;-68
2024/04/01 05:35:26;;;;;;;1999.90;999.90;;;10.10;99.90;;;;;;5032516;28;20021;-75
2024/04/01 05:37:51;;;;;;;1999.90;999.90;;;10.30;99.90;;;;;;5032218;28;20030;-74
2024/04/01 05:40:17;;;;;;;1999.90;999.90;;;10.50;99.90;;;;;;5032745;28;20025;-74
2024/04/01 05:42:42;;;;;;;1999.90;999.90;;;10.50;99.90;;;;;;5032452;28;20025;-73
2024/04/01 05:45:09;;;;;;;1999.90;999.90;;;10.40;99.90;;;;;;5032600;28;20033;-68
2024/04/01 05:47:35;;;;;;;1999.90;999.90;;;10.20;99.90;;;;;;5032321;28;20053;-68
2024/04/01 05:50:02;;;;;;;1999.90;999.90;;;10.00;99.90;;;;;;5032046;28;20492;-74
2024/04/01 05:52:28;;;;;;;1999.90;999.90;;;9.80;99.90;;;;;;5032315;28;20021;-74
2024/04/01 05:54:54;;;;;;;1999.90;999.90;;;9.70;99.90;;;;;;5031479;28;20021;-68
2024/04/01 05:57:19;;;;;;;1999.90;999.90;;;9.60;99.90;;;;;;5032459;28;20104;-68
2024/04/01 05:59:46;;;;;;;1999.90;999.90;;;9.70;99.90;;;;;;5030920;28;20135;-68
2024/04/01 06:02:12;;;;;;;1999.90;999.90;;;9.60;99.90;;;;;;5032286;28;20104;-68
2024/04/01 06:04:37;;;;;;;1999.90;999.90;;;9.70;99.90;;;;;;5032158;28;20436;-74
2024/04/01 06:07:03;;;;;;;1999.90;999.90;;;9.80;99.90;;;;;;5032068;28;20064;-74
2024/04/01 06:09:29;;;;;;;1999.90;999.90;;;9.80;99.90;;;;;;5031978;28;20026;-73
2024/04/01 06:11:54;;;;;;;1999.90;999.90;;;9.90;99.90;;;;;;5033938;28;20053;-68
2024/04/01 06:14:20;;;;;;;1999.90;999.90;;;9.50;99.90;;;;;;5035625;28;20025;-68
2024/04/01 06:16:45;;;;;;;1999.90;999.90;;;9.40;99.90;;;;;;5035952;28;20119;-68
2024/04/01 06:19:11;;;;;;;1999.90;999.90;;;9.50;99.90;;;;;;5035336;28;20080;-74
2024/04/01 06:21:36;;;;;;;1999.90;999.90;;;9.60;99.90;;;;;;5035791;28;20045;-73
2024/04/01 06:24:02;;;;;;;1999.90;999.90;;;9.90;99.90;;;;;;5035196;28;20034;-68
2024/04/01 06:26:28;;;;;;;1999.90;999.90;;;10.00;99.90;;;;;;5035642;28;20516;-68
2024/04/01 06:28:54;;;;;;;1999.90;999.90;;;10.10;99.90;;;;;;5035632;28;20463;-74
2024/04/01 06:31:20;;;;;;;1999.90;999.90;;;10.20;99.90;;;;;;5035311;28;20104;-75
2024/04/01 06:33:46;;;;;;;1999.90;999.90;;;10.40;99.90;;;;;;5035049;28;20056;-73
2024/04/01 06:36:11;;;;;;;1999.90;999.90;;;10.50;99.90;;;;;;5035132;28;20079;-73
2024/04/01 06:38:38;;;;;;;1999.90;999.90;;;10.60;99.90;;;;;;5035099;28;20029;-68
2024/04/01 06:41:03;;;;;;;1999.90;999.90;;;10.60;99.90;;;;;;5033998;28;20031;-68
2024/04/01 06:43:30;;;;;;;1999.90;999.90;;;10.40;99.90;;;;;;5035038;28;20033;-74
2024/04/01 06:45:57;;;;;;;1999.90;999.90;;;10.20;99.90;;;;;;5035313;28;20026;-74
2024/04/01 06:48:23;;;;;;;1999.90;999.90;;;10.20;99.90;;;;;;5035277;28;20022;-68
2024/04/01 06:50:49;;;;;;;1999.90;999.90;;;10.10;99.90;;;;;;5035393;28;20434;-68
2024/04/01 06:53:19;;;;;;;1999.90;999.90;;;10.10;99.90;;;;;;5034126;28;20108;-74
2024/04/01 06:55:46;;;;;;;1999.90;999.90;;;10.00;99.90;;;;;;5034314;28;20047;-74
2024/04/01 06:58:11;;;;;;;1999.90;999.90;;;10.00;99.90;;;;;;5034228;28;20065;-74
2024/04/01 07:00:37;;;;;;;1999.90;999.90;;;10.00;99.90;;;;;;5035040;28;20067;-68
2024/04/01 07:03:03;;;;;;;1999.90;999.90;;;10.20;99.90;;;;;;5033992;28;20037;-68
2024/04/01 07:05:30;;;;;;;1999.90;999.90;;;10.30;99.90;;;;;;5034673;28;20389;-68
2024/04/01 07:07:56;;;;;;;1999.90;999.90;;;10.50;99.90;;;;;;5034461;28;20032;-68
2024/04/01 07:10:21;;;;;;;1999.90;999.90;;;10.70;99.90;;;;;;5034347;28;20025;-68
2024/04/01 07:12:47;;;;;;;1999.90;999.90;;;11.00;99.90;;;;;;5035018;28;20572;-75
2024/04/01 07:15:13;;;;;;;1999.90;999.90;;;11.30;99.90;;;;;;5034744;28;20017;-68
2024/04/01 07:17:39;;;;;;;1999.90;999.90;;;11.50;99.90;;;;;;5034316;28;20014;-68
2024/04/01 07:20:07;;;;;;;1999.90;999.90;;;11.70;99.90;;;;;;5034297;28;20052;-68
2024/04/01 07:22:33;;;;;;;1999.90;999.90;;;12.00;99.90;;;;;;5033157;28;20515;-75
2024/04/01 07:24:59;;;;;;;1999.90;999.90;;;12.10;99.90;;;;;;5034246;28;20034;-69
2024/04/01 07:27:25;;;;;;;1999.90;999.90;;;12.20;99.90;;;;;;5034931;28;20021;-75
2024/04/01 07:29:51;;;;;;;1999.90;999.90;;;12.40;99.90;;;;;;5034088;28;20036;-74
2024/04/01 07:32:16;;;;;;;1999.90;999.90;;;12.50;99.90;;;;;;5034294;28;20025;-69
2024/04/01 07:34:42;;;;;;;1999.90;999.90;;;12.60;99.90;;;;;;5034308;28;20059;-69
2024/04/01 07:37:08;;;;;;;1999.90;999.90;;;12.60;99.90;;;;;;5033922;28;20108;-75
2024/04/01 07:39:33;;;;;;;1999.90;999.90;;;12.60;99.90;;;;;;5032922;28;20072;-69
2024/04/01 07:41:59;;;;;;;1999.90;999.90;;;12.60;99.90;;;;;;5034025;28;20043;-74
2024/04/01 07:44:25;;;;;;;1999.90;999.90;;;12.60;99.90;;;;;;5034023;28;20419;-68
2024/04/01 07:46:50;;;;;;;1999.90;999.90;;;12.80;99.90;;;;;;5034092;28;20034;-75
2024/04/01 07:49:16;;;;;;;1999.90;999.90;;;12.80;99.90;;;;;;5034120;28;20026;-76
2024/04/01 07:51:41;;;;;;;1999.90;999.90;;;13.00;99.90;;;;;;5033992;28;20571;-75
2024/04/01 07:54:07;;;;;;;1999.90;999.90;;;14.10;99.90;;;;;;5033702;28;20014;-69
2024/04/01 07:56:33;;;;;;;1999.90;999.90;;;16.00;99.90;;;;;;5033757;28;20104;-69
2024/04/01 07:58:58;;;;;;;1999.90;999.90;;;17.30;99.90;;;;;;5033918;28;20021;-75
2024/04/01 08:01:24;;;;;;;1999.90;999.90;;;18.30;99.90;;;;;;5032604;28;20029;-75
2024/04/01 08:03:50;;;;;;;1999.90;999.90;;;18.60;99.90;;;;;;5033641;28;20400;-75
2024/04/01 08:06:15;;;;;;;1999.90;999.90;;;19.30;99.90;;;;;;5033554;28;20477;-75
2024/04/01 08:08:41;;;;;;;1999.90;999.90;;;19.20;99.90;;;;;;5033224;28;20449;-75
2024/04/01 08:11:07;;;;;;;1999.90;999.90;;;17.90;99.90;;;;;;5033511;28;20498;-75
2024/04/01 08:13:33;;;;;;;1999.90;999.90;;;18.50;99.90;;;;;;5033928;28;20015;-69
2024/04/01 08:16:03;;;;;;;1999.90;999.90;;;17.30;99.90;;;;;;5033507;28;20029;-75
2024/04/01 08:18:29;;;;;;;1999.90;999.90;;;15.00;99.90;;;;;;5033201;28;20527;-75
2024/04/01 08:20:56;;;;;;;1999.90;999.90;;;15.70;99.90;;;;;;5032889;28;20160;-74
2024/04/01 08:23:22;;;;;;;1999.90;999.90;;;15.10;99.90;;;;;;5033226;28;20032;-75
2024/04/01 08:25:48;;;;;;;1999.90;999.90;;;16.30;99.90;;;;;;5033268;28;20443;-69
2024/04/01 08:28:13;;;;;;;1999.90;999.90;;;16.70;99.90;;;;;;5033385;28;20026;-76
2024/04/01 08:30:39;;;;;;;1999.90;999.90;;;17.70;99.90;;;;;;5032845;28;20048;-75
2024/04/01 08:33:05;;;;;;;1999.90;999.90;;;16.30;99.90;;;;;;5033520;28;20079;-75
2024/04/01 08:35:31;;;;;;;1999.90;999.90;;;15.70;99.90;;;;;;5033211;28;20052;-69
2024/04/01 08:37:56;;;;;;;1999.90;999.90;;;14.80;99.90;;;;;;5032896;28;20032;-69
2024/04/01 08:40:23;;;;;;;1999.90;999.90;;;13.90;99.90;;;;;;5033098;28;20025;-75
2024/04/01 08:42:54;;;;;;;1999.90;999.90;;;13.00;99.90;;;;;;5032867;28;20026;-69
2024/04/01 08:45:21;;;;;;;1999.90;999.90;;;12.50;99.90;;;;;;5032960;28;20053;-69
2024/04/01 08:47:53;;;;;;;1999.90;999.90;;;12.10;99.90;;;;;;5032957;28;20147;-69
2024/04/01 08:50:22;;;;;;;1999.90;999.90;;;11.90;99.90;;;;;;5033099;28;20030;-75
2024/04/01 08:53:07;;;;;;;1999.90;999.90;;;12.00;99.90;;;;;;5032913;28;20026;-75
2024/04/01 08:55:33;;;;;;;1999.90;999.90;;;12.70;99.90;;;;;;5032736;28;20021;-75
2024/04/01 08:57:59;;;;;;;1999.90;999.90;;;13.00;99.90;;;;;;5032735;28;20478;-69
2024/04/01 09:00:25;;;;;;;1999.90;999.90;;;15.50;99.90;;;;;;5032823;28;20025;-75
2024/04/01 09:02:50;;;;;;;1999.90;999.90;;;18.30;99.90;;;;;;5032731;28;20057;-75
2024/04/01 09:05:16;;;;;;;1999.90;999.90;;;19.20;99.90;;;;;;5032981;28;20026;-75
2024/04/01 09:07:42;;;;;;;1999.90;999.90;;;19.20;99.90;;;;;;5032717;28;20080;-76
2024/04/01 09:10:08;;;;;;;1999.90;999.90;;;17.90;99.90;;;;;;5032427;28;20112;-76
2024/04/01 09:12:33;;;;;;;1999.90;999.90;;;18.50;99.90;;;;;;5032729;28;20105;-69
2024/04/01 09:14:59;;;;;;;1999.90;999.90;;;17.10;99.90;;;;;;5032998;28;20112;-69
2024/04/01 09:17:26;;;;;;;1999.90;999.90;;;16.20;99.90;;;;;;5032550;28;20408;-70
2024/04/01 09:19:52;;;;;;;1999.90;999.90;;;15.10;99.90;;;;;;5027745;28;20444;-69
2024/04/01 09:22:18;;;;;;;1999.90;999.90;;;16.90;99.90;;;;;;5025104;28;20041;-75
2024/04/01 09:24:46;;;;;;;1999.90;999.90;;;18.30;99.90;;;;;;5032361;28;20026;-70
2024/04/01 09:27:12;;;;;;;1999.90;999.90;;;17.40;99.90;;;;;;5032623;28;20110;-69
2024/04/01 09:29:38;;;;;;;1999.90;999.90;;;16.90;99.90;;;;;;5032482;28;20108;-69
2024/04/01 09:32:04;;;;;;;1999.90;999.90;;;15.80;99.90;;;;;;5032385;28;20485;-75
2024/04/01 09:34:30;;;;;;;1999.90;999.90;;;14.90;99.90;;;;;;5032445;28;20017;-76
2024/04/01 09:36:55;;;;;;;1999.90;999.90;;;15.70;99.90;;;;;;5032431;28;20400;-69
2024/04/01 09:39:21;;;;;;;1999.90;999.90;;;15.10;99.90;;;;;;5032465;28;20510;-69
2024/04/01 09:41:48;;;;;;;1999.90;999.90;;;16.50;99.90;;;;;;5031408;28;20026;-70
2024/04/01 09:44:13;;;;;;;1999.90;999.90;;;17.10;99.90;;;;;;5032316;28;20021;-69
2024/04/01 09:46:39;;;;;;;1999.90;999.90;;;17.90;99.90;;;;;;5033820;28;20508;-76
2024/04/01 09:49:06;;;;;;;1999.90;999.90;;;18.10;99.90;;;;;;5035966;28;20022;-76
2024/04/01 09:51:34;;;;;;;1999.90;999.90;;;17.90;99.90;;;;;;5036319;28;20028;-76
2024/04/01 09:54:00;;;;;;;1999.90;999.90;;;17.40;99.90;;;;;;5036247;28;20021;-70
2024/04/01 09:57:03;;;;;;;1999.90;999.90;;;16.90;99.90;;;;;;5034678;28;20030;-70
2024/04/01 10:00:06;;;;;;;1999.90;999.90;;;16.50;99.90;;;;;;5036189;28;20488;-70
2024/04/01 10:03:09;;;;;;;1999.90;999.90;;;17.30;99.90;;;;;;5035910;28;20030;-76
2024/04/01 10:06:13;;;;;;;1999.90;999.90;;;17.60;99.90;;;;;;5033349;28;20589;-69
2024/04/01 10:08:45;;;;;;;1999.90;999.90;;;17.80;99.90;;;;;;5027228;28;20067;-76
2024/04/01 10:11:50;;;;;;;1999.90;999.90;;;17.60;99.90;;;;;;5035766;28;20029;-76
2024/04/01 10:14:22;;;;;;;1999.90;999.90;;;17.80;99.90;;;;;;5032947;28;20049;-75
2024/04/01 10:17:25;;;;;;;1999.90;999.90;;;17.20;99.90;;;;;;5035721;28;20029;-70
2024/04/01 10:20:06;;;;;;;1999.90;999.90;;;17.80;99.90;;;;;;5015743;28;20054;-75
2024/04/01 10:22:43;;;;;;;1999.90;999.90;;;17.80;99.90;;;;;;5029828;28;20033;-69
2024/04/01 10:25:31;;;;;;;1999.90;999.90;;;17.30;99.90;;;;;;5035423;28;20032;-75
2024/04/01 10:28:19;;;;;;;1999.90;999.90;;;16.50;99.90;;;;;;5034379;28;20396;-74
2024/04/01 10:31:15;;;;;;;1999.90;999.90;;;16.40;99.90;;;;;;5035378;28;20052;-76
2024/04/01 10:34:18;;;;;;;1999.90;999.90;;;16.10;99.90;;;;;;5035646;28;20342;-75
2024/04/01 10:36:59;;;;;;;1999.90;999.90;;;16.00;99.90;;;;;;5035413;28;20447;-74
2024/04/01 10:39:33;;;;;;;1999.90;999.90;;;15.70;99.90;;;;;;5035620;28;20037;-74
2024/04/01 10:41:59;;;;;;;1999.90;999.90;;;16.00;99.90;;;;;;5035259;28;20025;-73
2024/04/01 10:44:46;;;;;;;1999.90;999.90;;;15.90;99.90;;;;;;5035011;28;20029;-74
2024/04/01 10:47:27;;;;;;;1999.90;999.90;;;15.70;99.90;;;;;;5035119;28;20099;-69
2024/04/01 10:50:05;;;;;;;1999.90;999.90;;;15.60;99.90;;;;;;5035457;28;20108;-69
2024/04/01 10:52:49;;;;;;;1999.90;999.90;;;15.30;99.90;;;;;;5034784;28;20032;-75
2024/04/01 10:55:37;;;;;;;1999.90;999.90;;;15.40;99.90;;;;;;5035142;28;20030;-74
2024/04/01 10:58:11;;;;;;;1999.90;999.90;;;15.00;99.90;;;;;;5034812;28;20096;-69
2024/04/01 11:01:06;;;;;;;1999.90;999.90;;;15.60;99.90;;;;;;5034790;28;20025;-74
2024/04/01 11:03:45;;;;;;;1999.90;999.90;;;15.50;99.90;;;;;;5033150;28;20041;-74
2024/04/01 11:06:41;;;;;;;1999.90;999.90;;;15.70;99.90;;;;;;5034618;28;20514;-74
2024/04/01 11:09:49;;;;;;;1999.90;999.90;;;15.50;99.90;;;;;;5032873;28;20076;-68
2024/04/01 11:12:41;;;;;;;1999.90;999.90;;;15.40;99.90;;;;;;5034609;28;20104;-69
2024/04/01 11:15:10;;;;;;;1999.90;999.90;;;15.50;99.90;;;;;;5035113;28;20156;-74
2024/04/01 11:17:37;;;;;;;1999.90;999.90;;;14.70;99.90;;;;;;5034338;28;20143;-74
2024/04/01 11:20:21;;;;;;;1999.90;999.90;;;15.10;99.90;;;;;;5034249;28;20064;-75
2024/04/01 11:22:49;;;;;;;1999.90;999.90;;;15.40;99.90;;;;;;5034406;28;20484;-69
2024/04/01 11:25:46;;;;;;;1999.90;999.90;;;15.60;99.90;;;;;;5034304;28;20060;-69
2024/04/01 11:28:42;;;;;;;1999.90;999.90;;;15.50;99.90;;;;;;5034447;28;20109;-75
2024/04/01 11:31:16;;;;;;;1999.90;999.90;;;15.30;99.90;;;;;;5014666;28;20508;-74
2024/04/01 11:34:00;;;;;;;1999.90;999.90;;;15.50;99.90;;;;;;5014637;28;20029;-69
2024/04/01 11:36:33;;;;;;;1999.90;999.90;;;15.20;99.90;;;;;;5014320;28;20040;-74
2024/04/01 11:39:04;;;;;;;1999.90;999.90;;;15.40;99.90;;;;;;5014718;28;20076;-69
2024/04/01 11:41:34;;;;;;;1999.90;999.90;;;15.30;99.90;;;;;;5014506;28;20022;-68
2024/04/01 11:44:01;;;;;;;1999.90;999.90;;;15.40;99.90;;;;;;5014267;28;20461;-74
2024/04/01 11:46:28;;;;;;;1999.90;999.90;;;16.20;99.90;;;;;;5014141;28;20062;-74
2024/04/01 11:48:54;;;;;;;1999.90;999.90;;;15.90;99.90;;;;;;5014185;28;20451;-74
2024/04/01 11:51:36;;;;;;;1999.90;999.90;;;16.00;99.90;;;;;;5014630;28;20473;-73
2024/04/01 11:54:03;;;;;;;1999.90;999.90;;;15.00;99.90;;;;;;5014134;28;20025;-68
2024/04/01 11:56:42;;;;;;;1999.90;999.90;;;12.90;99.90;;;;;;5013817;28;20022;-74
2024/04/01 11:59:11;;;;;;;1999.90;999.90;;;11.80;99.90;;;;;;5014000;28;20048;-68
2024/04/01 12:01:41;;;;;;;1999.90;999.90;;;12.50;99.90;;;;;;5013984;28;20037;-68
2024/04/01 12:04:17;;;;;;;1999.90;999.90;;;12.90;99.90;;;;;;5013934;28;20083;-68
2024/04/01 12:06:42;;;;;;;1999.90;999.90;;;12.90;99.90;;;;;;5013865;28;20034;-68
2024/04/01 12:09:12;;;;;;;1999.90;999.90;;;13.10;99.90;;;;;;5013225;28;20449;-74